sensor_id;sensor_type;location;lat;lon;timestamp;temperature;humidity
34231;DHT22;21574;51.538;-0.084;2022-08-20T00:00:06;28.40;49.20
34231;DHT22;21574;51.538;-0.084;2022-08-20T00:05:35;28.30;49.10
34231;DHT22;21574;51.538;-0.084;2022-08-20T00:08:01;28.30;49.00
34231;DHT22;21574;51.538;-0.084;2022-08-20T00:10:28;28.30;49.00
34231;DHT22;21574;51.538;-0.084;2022-08-20T00:12:54;28.30;49.00
34231;DHT22;21574;51.538;-0.084;2022-08-20T00:15:22;28.30;49.00
34231;DHT22;21574;51.538;-0.084;2022-08-20T00:17:50;28.30;49.00
34231;DHT22;21574;51.538;-0.084;2022-08-20T00:20:17;28.30;49.00
34231;DHT22;21574;51.538;-0.084;2022-08-20T00:22:43;28.30;49.00
34231;DHT22;21574;51.538;-0.084;2022-08-20T00:25:08;28.30;49.00
34231;DHT22;21574;51.538;-0.084;2022-08-20T00:27:34;28.30;49.00
34231;DHT22;21574;51.538;-0.084;2022-08-20T00:30:00;28.30;49.00
34231;DHT22;21574;51.538;-0.084;2022-08-20T00:32:25;28.30;49.10
34231;DHT22;21574;51.538;-0.084;2022-08-20T00:34:51;28.30;49.00
34231;DHT22;21574;51.538;-0.084;2022-08-20T00:37:17;28.30;49.00
34231;DHT22;21574;51.538;-0.084;2022-08-20T00:39:42;28.30;48.90
34231;DHT22;21574;51.538;-0.084;2022-08-20T00:42:08;28.30;49.00
34231;DHT22;21574;51.538;-0.084;2022-08-20T00:44:33;28.30;49.10
34231;DHT22;21574;51.538;-0.084;2022-08-20T00:46:59;28.30;49.00
34231;DHT22;21574;51.538;-0.084;2022-08-20T00:49:26;28.30;49.00
34231;DHT22;21574;51.538;-0.084;2022-08-20T00:51:57;28.20;48.90
34231;DHT22;21574;51.538;-0.084;2022-08-20T00:54:32;28.30;49.10
34231;DHT22;21574;51.538;-0.084;2022-08-20T00:57:06;28.20;48.90
34231;DHT22;21574;51.538;-0.084;2022-08-20T00:59:34;28.20;48.90
34231;DHT22;21574;51.538;-0.084;2022-08-20T01:02:02;28.20;48.70
34231;DHT22;21574;51.538;-0.084;2022-08-20T01:04:28;28.20;48.90
34231;DHT22;21574;51.538;-0.084;2022-08-20T01:06:55;28.20;48.80
34231;DHT22;21574;51.538;-0.084;2022-08-20T01:09:21;28.20;48.80
34231;DHT22;21574;51.538;-0.084;2022-08-20T01:11:47;28.20;48.80
34231;DHT22;21574;51.538;-0.084;2022-08-20T01:14:13;28.20;48.90
34231;DHT22;21574;51.538;-0.084;2022-08-20T01:16:58;28.20;48.90
34231;DHT22;21574;51.538;-0.084;2022-08-20T01:19:28;28.10;48.90
34231;DHT22;21574;51.538;-0.084;2022-08-20T01:21:55;28.10;48.90
34231;DHT22;21574;51.538;-0.084;2022-08-20T01:24:24;28.20;49.00
34231;DHT22;21574;51.538;-0.084;2022-08-20T01:26:52;28.20;49.00
34231;DHT22;21574;51.538;-0.084;2022-08-20T01:29:21;28.20;49.10
34231;DHT22;21574;51.538;-0.084;2022-08-20T01:31:47;28.20;49.10
34231;DHT22;21574;51.538;-0.084;2022-08-20T01:34:15;28.20;49.00
34231;DHT22;21574;51.538;-0.084;2022-08-20T01:36:43;28.10;49.00
34231;DHT22;21574;51.538;-0.084;2022-08-20T01:39:10;28.10;49.60
34231;DHT22;21574;51.538;-0.084;2022-08-20T01:41:53;28.10;49.30
34231;DHT22;21574;51.538;-0.084;2022-08-20T01:44:22;28.20;49.60
34231;DHT22;21574;51.538;-0.084;2022-08-20T01:46:49;28.10;49.30
34231;DHT22;21574;51.538;-0.084;2022-08-20T01:49:17;28.10;49.30
34231;DHT22;21574;51.538;-0.084;2022-08-20T01:51:43;28.10;49.30
34231;DHT22;21574;51.538;-0.084;2022-08-20T01:54:09;28.10;49.10
34231;DHT22;21574;51.538;-0.084;2022-08-20T01:56:34;28.10;49.30
34231;DHT22;21574;51.538;-0.084;2022-08-20T01:59:02;28.10;49.30
34231;DHT22;21574;51.538;-0.084;2022-08-20T02:01:37;28.10;49.10
34231;DHT22;21574;51.538;-0.084;2022-08-20T02:04:05;28.10;49.00
34231;DHT22;21574;51.538;-0.084;2022-08-20T02:06:33;28.10;49.10
34231;DHT22;21574;51.538;-0.084;2022-08-20T02:08:59;28.10;49.00
34231;DHT22;21574;51.538;-0.084;2022-08-20T02:11:26;28.10;49.00
34231;DHT22;21574;51.538;-0.084;2022-08-20T02:13:52;28.10;49.20
34231;DHT22;21574;51.538;-0.084;2022-08-20T02:16:22;28.00;48.90
34231;DHT22;21574;51.538;-0.084;2022-08-20T02:18:52;28.10;49.50
34231;DHT22;21574;51.538;-0.084;2022-08-20T02:21:19;28.10;49.20
34231;DHT22;21574;51.538;-0.084;2022-08-20T02:23:45;28.00;49.10
34231;DHT22;21574;51.538;-0.084;2022-08-20T02:26:10;28.00;48.90
34231;DHT22;21574;51.538;-0.084;2022-08-20T02:28:36;28.00;48.90
34231;DHT22;21574;51.538;-0.084;2022-08-20T02:31:01;28.10;49.10
34231;DHT22;21574;51.538;-0.084;2022-08-20T02:33:31;28.00;49.00
34231;DHT22;21574;51.538;-0.084;2022-08-20T02:35:56;28.00;49.10
34231;DHT22;21574;51.538;-0.084;2022-08-20T02:38:22;28.00;49.00
34231;DHT22;21574;51.538;-0.084;2022-08-20T02:40:47;28.00;49.00
34231;DHT22;21574;51.538;-0.084;2022-08-20T02:43:14;28.00;49.10
34231;DHT22;21574;51.538;-0.084;2022-08-20T02:45:42;28.00;49.10
34231;DHT22;21574;51.538;-0.084;2022-08-20T02:48:12;28.00;49.10
34231;DHT22;21574;51.538;-0.084;2022-08-20T02:50:48;28.00;49.30
34231;DHT22;21574;51.538;-0.084;2022-08-20T02:53:15;28.00;49.40
34231;DHT22;21574;51.538;-0.084;2022-08-20T02:55:40;28.00;49.30
34231;DHT22;21574;51.538;-0.084;2022-08-20T02:58:06;28.00;49.30
34231;DHT22;21574;51.538;-0.084;2022-08-20T03:00:32;28.00;49.30
34231;DHT22;21574;51.538;-0.084;2022-08-20T03:02:57;28.00;49.30
34231;DHT22;21574;51.538;-0.084;2022-08-20T03:05:23;28.00;49.30
34231;DHT22;21574;51.538;-0.084;2022-08-20T03:07:50;28.00;49.40
34231;DHT22;21574;51.538;-0.084;2022-08-20T03:10:21;28.00;49.30
34231;DHT22;21574;51.538;-0.084;2022-08-20T03:12:47;28.00;49.40
34231;DHT22;21574;51.538;-0.084;2022-08-20T03:15:12;28.00;49.40
34231;DHT22;21574;51.538;-0.084;2022-08-20T03:17:38;28.00;49.50
34231;DHT22;21574;51.538;-0.084;2022-08-20T03:20:04;28.00;49.30
34231;DHT22;21574;51.538;-0.084;2022-08-20T03:22:30;27.90;49.30
34231;DHT22;21574;51.538;-0.084;2022-08-20T03:24:56;28.00;49.30
34231;DHT22;21574;51.538;-0.084;2022-08-20T03:27:21;27.90;49.80
34231;DHT22;21574;51.538;-0.084;2022-08-20T03:29:47;27.90;49.50
34231;DHT22;21574;51.538;-0.084;2022-08-20T03:32:12;28.00;49.70
34231;DHT22;21574;51.538;-0.084;2022-08-20T03:34:38;27.90;49.50
34231;DHT22;21574;51.538;-0.084;2022-08-20T03:37:03;27.90;49.60
34231;DHT22;21574;51.538;-0.084;2022-08-20T03:39:29;27.90;49.40
34231;DHT22;21574;51.538;-0.084;2022-08-20T03:41:54;27.90;49.40
34231;DHT22;21574;51.538;-0.084;2022-08-20T03:44:20;27.90;49.50
34231;DHT22;21574;51.538;-0.084;2022-08-20T03:46:45;27.90;49.30
34231;DHT22;21574;51.538;-0.084;2022-08-20T03:49:11;28.00;49.50
34231;DHT22;21574;51.538;-0.084;2022-08-20T03:51:37;27.90;49.40
34231;DHT22;21574;51.538;-0.084;2022-08-20T03:54:02;27.90;49.30
34231;DHT22;21574;51.538;-0.084;2022-08-20T03:56:28;27.90;49.40
34231;DHT22;21574;51.538;-0.084;2022-08-20T03:58:54;27.90;49.30
34231;DHT22;21574;51.538;-0.084;2022-08-20T04:01:19;27.90;49.30
34231;DHT22;21574;51.538;-0.084;2022-08-20T04:03:45;27.90;49.40
34231;DHT22;21574;51.538;-0.084;2022-08-20T04:06:11;27.90;49.40
34231;DHT22;21574;51.538;-0.084;2022-08-20T04:08:36;27.90;49.30
34231;DHT22;21574;51.538;-0.084;2022-08-20T04:11:05;27.90;49.20
34231;DHT22;21574;51.538;-0.084;2022-08-20T04:13:31;27.90;49.30
34231;DHT22;21574;51.538;-0.084;2022-08-20T04:15:57;27.90;49.30
34231;DHT22;21574;51.538;-0.084;2022-08-20T04:18:25;27.80;49.10
34231;DHT22;21574;51.538;-0.084;2022-08-20T04:20:51;27.90;49.20
34231;DHT22;21574;51.538;-0.084;2022-08-20T04:23:17;27.80;49.10
34231;DHT22;21574;51.538;-0.084;2022-08-20T04:25:43;27.90;49.20
34231;DHT22;21574;51.538;-0.084;2022-08-20T04:28:10;27.80;49.20
34231;DHT22;21574;51.538;-0.084;2022-08-20T04:30:36;27.90;49.30
34231;DHT22;21574;51.538;-0.084;2022-08-20T04:33:02;27.80;49.70
34231;DHT22;21574;51.538;-0.084;2022-08-20T04:35:28;27.80;49.50
34231;DHT22;21574;51.538;-0.084;2022-08-20T04:38:01;27.90;49.60
34231;DHT22;21574;51.538;-0.084;2022-08-20T04:40:28;27.80;49.80
34231;DHT22;21574;51.538;-0.084;2022-08-20T04:43:12;27.80;49.80
34231;DHT22;21574;51.538;-0.084;2022-08-20T04:45:38;27.80;50.00
34231;DHT22;21574;51.538;-0.084;2022-08-20T04:48:04;27.80;50.20
34231;DHT22;21574;51.538;-0.084;2022-08-20T04:50:31;27.80;50.40
34231;DHT22;21574;51.538;-0.084;2022-08-20T04:52:59;27.80;50.20
34231;DHT22;21574;51.538;-0.084;2022-08-20T04:55:25;27.80;50.50
34231;DHT22;21574;51.538;-0.084;2022-08-20T04:57:50;27.90;50.60
34231;DHT22;21574;51.538;-0.084;2022-08-20T05:00:16;27.80;50.60
34231;DHT22;21574;51.538;-0.084;2022-08-20T05:02:42;27.80;50.80
34231;DHT22;21574;51.538;-0.084;2022-08-20T05:05:08;27.80;51.70
34231;DHT22;21574;51.538;-0.084;2022-08-20T05:07:38;27.80;51.80
34231;DHT22;21574;51.538;-0.084;2022-08-20T05:10:05;27.80;50.60
34231;DHT22;21574;51.538;-0.084;2022-08-20T05:12:30;27.80;52.30
34231;DHT22;21574;51.538;-0.084;2022-08-20T05:14:56;27.80;51.90
34231;DHT22;21574;51.538;-0.084;2022-08-20T05:17:22;27.80;51.60
34231;DHT22;21574;51.538;-0.084;2022-08-20T05:19:48;27.80;51.80
34231;DHT22;21574;51.538;-0.084;2022-08-20T05:22:15;27.80;51.80
34231;DHT22;21574;51.538;-0.084;2022-08-20T05:24:42;27.80;51.80
34231;DHT22;21574;51.538;-0.084;2022-08-20T05:27:08;27.80;51.80
34231;DHT22;21574;51.538;-0.084;2022-08-20T05:29:33;27.80;51.50
34231;DHT22;21574;51.538;-0.084;2022-08-20T05:31:59;27.80;51.20
34231;DHT22;21574;51.538;-0.084;2022-08-20T05:34:24;27.80;51.10
34231;DHT22;21574;51.538;-0.084;2022-08-20T05:36:50;27.80;50.80
34231;DHT22;21574;51.538;-0.084;2022-08-20T05:39:17;27.80;50.70
34231;DHT22;21574;51.538;-0.084;2022-08-20T05:41:44;27.80;50.70
34231;DHT22;21574;51.538;-0.084;2022-08-20T05:44:10;27.80;52.20
34231;DHT22;21574;51.538;-0.084;2022-08-20T05:46:38;27.80;52.20
34231;DHT22;21574;51.538;-0.084;2022-08-20T05:49:05;27.80;51.50
34231;DHT22;21574;51.538;-0.084;2022-08-20T05:51:31;27.80;51.10
34231;DHT22;21574;51.538;-0.084;2022-08-20T05:53:57;27.80;50.90
34231;DHT22;21574;51.538;-0.084;2022-08-20T05:56:23;27.80;50.90
34231;DHT22;21574;51.538;-0.084;2022-08-20T05:58:48;27.80;50.70
34231;DHT22;21574;51.538;-0.084;2022-08-20T06:01:13;27.80;50.90
34231;DHT22;21574;51.538;-0.084;2022-08-20T06:03:39;27.80;50.90
34231;DHT22;21574;51.538;-0.084;2022-08-20T06:06:23;27.80;50.90
34231;DHT22;21574;51.538;-0.084;2022-08-20T06:08:48;27.80;50.80
34231;DHT22;21574;51.538;-0.084;2022-08-20T06:11:14;27.80;50.80
34231;DHT22;21574;51.538;-0.084;2022-08-20T06:13:39;27.80;50.80
34231;DHT22;21574;51.538;-0.084;2022-08-20T06:16:05;27.80;50.70
34231;DHT22;21574;51.538;-0.084;2022-08-20T06:18:30;27.80;50.70
34231;DHT22;21574;51.538;-0.084;2022-08-20T06:20:56;27.80;50.70
34231;DHT22;21574;51.538;-0.084;2022-08-20T06:23:21;27.80;50.50
34231;DHT22;21574;51.538;-0.084;2022-08-20T06:25:49;27.80;50.50
34231;DHT22;21574;51.538;-0.084;2022-08-20T06:28:15;27.80;50.60
34231;DHT22;21574;51.538;-0.084;2022-08-20T06:30:40;27.80;50.50
34231;DHT22;21574;51.538;-0.084;2022-08-20T06:33:06;27.80;50.50
34231;DHT22;21574;51.538;-0.084;2022-08-20T06:35:31;27.80;50.40
34231;DHT22;21574;51.538;-0.084;2022-08-20T06:37:58;27.80;50.50
34231;DHT22;21574;51.538;-0.084;2022-08-20T06:40:25;27.80;50.40
34231;DHT22;21574;51.538;-0.084;2022-08-20T06:42:52;27.80;50.30
34231;DHT22;21574;51.538;-0.084;2022-08-20T06:45:29;27.80;50.40
34231;DHT22;21574;51.538;-0.084;2022-08-20T06:47:56;27.80;50.30
34231;DHT22;21574;51.538;-0.084;2022-08-20T06:50:29;27.80;50.60
34231;DHT22;21574;51.538;-0.084;2022-08-20T06:52:55;27.80;50.30
34231;DHT22;21574;51.538;-0.084;2022-08-20T06:55:21;27.80;50.30
34231;DHT22;21574;51.538;-0.084;2022-08-20T06:57:46;27.80;50.20
34231;DHT22;21574;51.538;-0.084;2022-08-20T07:00:19;27.80;50.20
34231;DHT22;21574;51.538;-0.084;2022-08-20T07:02:45;27.80;50.60
34231;DHT22;21574;51.538;-0.084;2022-08-20T07:05:12;27.80;50.40
34231;DHT22;21574;51.538;-0.084;2022-08-20T07:07:37;27.80;50.10
34231;DHT22;21574;51.538;-0.084;2022-08-20T07:10:04;27.80;50.20
34231;DHT22;21574;51.538;-0.084;2022-08-20T07:12:30;27.80;50.40
34231;DHT22;21574;51.538;-0.084;2022-08-20T07:14:55;27.80;50.50
34231;DHT22;21574;51.538;-0.084;2022-08-20T07:17:21;27.80;50.60
34231;DHT22;21574;51.538;-0.084;2022-08-20T07:19:46;27.80;50.50
34231;DHT22;21574;51.538;-0.084;2022-08-20T07:22:12;27.90;50.60
34231;DHT22;21574;51.538;-0.084;2022-08-20T07:24:39;27.80;50.90
34231;DHT22;21574;51.538;-0.084;2022-08-20T07:27:04;27.80;50.60
34231;DHT22;21574;51.538;-0.084;2022-08-20T07:29:30;27.90;50.60
34231;DHT22;21574;51.538;-0.084;2022-08-20T07:32:16;27.80;50.50
34231;DHT22;21574;51.538;-0.084;2022-08-20T07:35:02;27.80;50.50
34231;DHT22;21574;51.538;-0.084;2022-08-20T07:37:27;27.80;50.50
34231;DHT22;21574;51.538;-0.084;2022-08-20T07:39:53;27.80;50.70
34231;DHT22;21574;51.538;-0.084;2022-08-20T07:42:18;27.80;50.80
34231;DHT22;21574;51.538;-0.084;2022-08-20T07:44:44;27.80;50.60
34231;DHT22;21574;51.538;-0.084;2022-08-20T07:47:09;27.80;50.60
34231;DHT22;21574;51.538;-0.084;2022-08-20T07:49:38;27.80;50.50
34231;DHT22;21574;51.538;-0.084;2022-08-20T07:52:04;27.80;50.50
34231;DHT22;21574;51.538;-0.084;2022-08-20T07:54:30;27.80;50.30
34231;DHT22;21574;51.538;-0.084;2022-08-20T07:56:59;27.90;50.40
34231;DHT22;21574;51.538;-0.084;2022-08-20T07:59:24;27.90;50.30
34231;DHT22;21574;51.538;-0.084;2022-08-20T08:01:50;27.80;50.20
34231;DHT22;21574;51.538;-0.084;2022-08-20T08:04:15;27.80;50.20
34231;DHT22;21574;51.538;-0.084;2022-08-20T08:06:41;27.90;50.30
34231;DHT22;21574;51.538;-0.084;2022-08-20T08:09:10;27.90;50.30
34231;DHT22;21574;51.538;-0.084;2022-08-20T08:11:37;27.90;50.80
34231;DHT22;21574;51.538;-0.084;2022-08-20T08:14:04;27.90;50.20
34231;DHT22;21574;51.538;-0.084;2022-08-20T08:16:31;27.80;50.10
34231;DHT22;21574;51.538;-0.084;2022-08-20T08:18:56;27.80;50.10
34231;DHT22;21574;51.538;-0.084;2022-08-20T08:21:23;27.80;50.30
34231;DHT22;21574;51.538;-0.084;2022-08-20T08:23:48;27.80;50.20
34231;DHT22;21574;51.538;-0.084;2022-08-20T08:26:14;27.80;50.60
34231;DHT22;21574;51.538;-0.084;2022-08-20T08:28:40;27.80;50.30
34231;DHT22;21574;51.538;-0.084;2022-08-20T08:31:08;27.80;50.20
34231;DHT22;21574;51.538;-0.084;2022-08-20T08:33:34;27.80;50.20
34231;DHT22;21574;51.538;-0.084;2022-08-20T08:36:01;27.80;50.20
34231;DHT22;21574;51.538;-0.084;2022-08-20T08:38:28;27.80;50.20
34231;DHT22;21574;51.538;-0.084;2022-08-20T08:40:54;27.80;50.20
34231;DHT22;21574;51.538;-0.084;2022-08-20T08:43:22;27.80;50.40
34231;DHT22;21574;51.538;-0.084;2022-08-20T08:45:59;27.80;50.30
34231;DHT22;21574;51.538;-0.084;2022-08-20T08:48:44;27.80;50.50
34231;DHT22;21574;51.538;-0.084;2022-08-20T08:51:11;27.80;50.30
34231;DHT22;21574;51.538;-0.084;2022-08-20T08:53:50;27.80;50.20
34231;DHT22;21574;51.538;-0.084;2022-08-20T08:56:22;27.80;50.50
34231;DHT22;21574;51.538;-0.084;2022-08-20T08:58:49;27.80;51.00
34231;DHT22;21574;51.538;-0.084;2022-08-20T09:01:15;27.80;50.30
34231;DHT22;21574;51.538;-0.084;2022-08-20T09:03:42;27.80;50.30
34231;DHT22;21574;51.538;-0.084;2022-08-20T09:06:11;27.90;50.30
34231;DHT22;21574;51.538;-0.084;2022-08-20T09:08:39;27.80;50.20
34231;DHT22;21574;51.538;-0.084;2022-08-20T09:11:07;27.80;50.20
34231;DHT22;21574;51.538;-0.084;2022-08-20T09:13:34;27.80;50.10
34231;DHT22;21574;51.538;-0.084;2022-08-20T09:16:00;27.80;50.10
34231;DHT22;21574;51.538;-0.084;2022-08-20T09:18:25;27.90;50.30
34231;DHT22;21574;51.538;-0.084;2022-08-20T09:20:51;27.80;50.60
34231;DHT22;21574;51.538;-0.084;2022-08-20T09:23:16;27.90;50.30
34231;DHT22;21574;51.538;-0.084;2022-08-20T09:25:42;27.80;50.20
34231;DHT22;21574;51.538;-0.084;2022-08-20T09:28:07;27.80;50.10
34231;DHT22;21574;51.538;-0.084;2022-08-20T09:30:33;27.80;50.40
34231;DHT22;21574;51.538;-0.084;2022-08-20T09:32:59;27.80;50.30
34231;DHT22;21574;51.538;-0.084;2022-08-20T09:35:25;27.90;50.30
34231;DHT22;21574;51.538;-0.084;2022-08-20T09:37:50;27.80;50.30
34231;DHT22;21574;51.538;-0.084;2022-08-20T09:40:17;27.80;50.50
34231;DHT22;21574;51.538;-0.084;2022-08-20T09:42:43;27.80;50.50
34231;DHT22;21574;51.538;-0.084;2022-08-20T09:45:09;27.80;50.30
34231;DHT22;21574;51.538;-0.084;2022-08-20T09:47:35;27.80;50.10
34231;DHT22;21574;51.538;-0.084;2022-08-20T09:50:00;27.80;50.10
34231;DHT22;21574;51.538;-0.084;2022-08-20T09:52:40;27.80;50.00
34231;DHT22;21574;51.538;-0.084;2022-08-20T09:55:23;27.80;50.00
34231;DHT22;21574;51.538;-0.084;2022-08-20T09:57:50;27.80;50.00
34231;DHT22;21574;51.538;-0.084;2022-08-20T10:00:16;27.80;50.00
34231;DHT22;21574;51.538;-0.084;2022-08-20T10:02:42;27.70;50.00
34231;DHT22;21574;51.538;-0.084;2022-08-20T10:05:08;27.80;50.00
34231;DHT22;21574;51.538;-0.084;2022-08-20T10:07:34;27.80;50.20
34231;DHT22;21574;51.538;-0.084;2022-08-20T10:10:00;27.80;49.90
34231;DHT22;21574;51.538;-0.084;2022-08-20T10:12:25;27.80;49.90
34231;DHT22;21574;51.538;-0.084;2022-08-20T10:14:51;27.70;49.80
34231;DHT22;21574;51.538;-0.084;2022-08-20T10:17:16;27.80;49.90
34231;DHT22;21574;51.538;-0.084;2022-08-20T10:19:41;27.80;49.80
34231;DHT22;21574;51.538;-0.084;2022-08-20T10:22:07;27.70;49.70
34231;DHT22;21574;51.538;-0.084;2022-08-20T10:24:33;27.70;49.80
34231;DHT22;21574;51.538;-0.084;2022-08-20T10:26:59;27.80;49.90
34231;DHT22;21574;51.538;-0.084;2022-08-20T10:29:25;27.70;49.90
34231;DHT22;21574;51.538;-0.084;2022-08-20T10:31:51;27.80;50.00
34231;DHT22;21574;51.538;-0.084;2022-08-20T10:34:17;27.70;49.80
34231;DHT22;21574;51.538;-0.084;2022-08-20T10:36:42;27.80;49.90
34231;DHT22;21574;51.538;-0.084;2022-08-20T10:39:08;27.70;49.80
34231;DHT22;21574;51.538;-0.084;2022-08-20T10:41:33;27.80;49.80
34231;DHT22;21574;51.538;-0.084;2022-08-20T10:43:59;27.70;49.70
34231;DHT22;21574;51.538;-0.084;2022-08-20T10:46:24;27.70;49.70
34231;DHT22;21574;51.538;-0.084;2022-08-20T10:48:50;27.70;49.70
34231;DHT22;21574;51.538;-0.084;2022-08-20T10:51:15;27.70;49.70
34231;DHT22;21574;51.538;-0.084;2022-08-20T10:53:41;27.70;49.70
34231;DHT22;21574;51.538;-0.084;2022-08-20T10:56:06;27.70;49.70
34231;DHT22;21574;51.538;-0.084;2022-08-20T10:58:32;27.70;49.70
34231;DHT22;21574;51.538;-0.084;2022-08-20T11:00:57;27.70;49.70
34231;DHT22;21574;51.538;-0.084;2022-08-20T11:03:23;27.70;49.70
34231;DHT22;21574;51.538;-0.084;2022-08-20T11:05:48;27.70;49.60
34231;DHT22;21574;51.538;-0.084;2022-08-20T11:08:14;27.70;49.60
34231;DHT22;21574;51.538;-0.084;2022-08-20T11:10:40;27.70;49.50
34231;DHT22;21574;51.538;-0.084;2022-08-20T11:13:06;27.70;49.50
34231;DHT22;21574;51.538;-0.084;2022-08-20T11:15:33;27.70;49.50
34231;DHT22;21574;51.538;-0.084;2022-08-20T11:17:59;27.70;49.50
34231;DHT22;21574;51.538;-0.084;2022-08-20T11:20:25;27.80;49.60
34231;DHT22;21574;51.538;-0.084;2022-08-20T11:22:51;27.80;49.60
34231;DHT22;21574;51.538;-0.084;2022-08-20T11:25:17;27.70;50.00
34231;DHT22;21574;51.538;-0.084;2022-08-20T11:27:43;27.70;50.50
34231;DHT22;21574;51.538;-0.084;2022-08-20T11:30:14;27.80;50.60
34231;DHT22;21574;51.538;-0.084;2022-08-20T11:32:40;27.70;51.60
34231;DHT22;21574;51.538;-0.084;2022-08-20T11:35:06;27.60;51.10
34231;DHT22;21574;51.538;-0.084;2022-08-20T11:37:31;27.30;50.20
34231;DHT22;21574;51.538;-0.084;2022-08-20T11:39:57;27.20;49.60
34231;DHT22;21574;51.538;-0.084;2022-08-20T11:42:22;27.00;49.00
34231;DHT22;21574;51.538;-0.084;2022-08-20T11:44:48;27.00;48.60
34231;DHT22;21574;51.538;-0.084;2022-08-20T11:47:24;26.90;48.40
34231;DHT22;21574;51.538;-0.084;2022-08-20T11:49:56;26.90;48.20
34231;DHT22;21574;51.538;-0.084;2022-08-20T11:52:22;26.80;48.30
34231;DHT22;21574;51.538;-0.084;2022-08-20T11:54:48;26.80;48.60
34231;DHT22;21574;51.538;-0.084;2022-08-20T11:57:18;26.90;48.60
34231;DHT22;21574;51.538;-0.084;2022-08-20T11:59:46;26.80;48.70
34231;DHT22;21574;51.538;-0.084;2022-08-20T12:02:12;26.70;48.90
34231;DHT22;21574;51.538;-0.084;2022-08-20T12:04:37;26.80;48.90
34231;DHT22;21574;51.538;-0.084;2022-08-20T12:07:07;26.70;49.00
34231;DHT22;21574;51.538;-0.084;2022-08-20T12:09:33;26.70;49.10
34231;DHT22;21574;51.538;-0.084;2022-08-20T12:11:58;26.70;49.20
34231;DHT22;21574;51.538;-0.084;2022-08-20T12:14:24;26.70;49.40
34231;DHT22;21574;51.538;-0.084;2022-08-20T12:16:51;26.70;49.40
34231;DHT22;21574;51.538;-0.084;2022-08-20T12:19:16;26.70;49.60
34231;DHT22;21574;51.538;-0.084;2022-08-20T12:21:42;26.70;49.70
34231;DHT22;21574;51.538;-0.084;2022-08-20T12:24:07;26.70;49.70
34231;DHT22;21574;51.538;-0.084;2022-08-20T12:26:33;26.70;49.80
34231;DHT22;21574;51.538;-0.084;2022-08-20T12:28:58;26.60;49.80
34231;DHT22;21574;51.538;-0.084;2022-08-20T12:31:24;26.60;49.80
34231;DHT22;21574;51.538;-0.084;2022-08-20T12:33:49;26.60;49.90
34231;DHT22;21574;51.538;-0.084;2022-08-20T12:36:15;26.60;50.00
34231;DHT22;21574;51.538;-0.084;2022-08-20T12:38:40;26.60;50.00
34231;DHT22;21574;51.538;-0.084;2022-08-20T12:41:06;26.60;50.10
34231;DHT22;21574;51.538;-0.084;2022-08-20T12:43:31;26.60;50.20
34231;DHT22;21574;51.538;-0.084;2022-08-20T12:45:57;26.60;50.20
34231;DHT22;21574;51.538;-0.084;2022-08-20T12:48:22;26.60;50.30
34231;DHT22;21574;51.538;-0.084;2022-08-20T12:50:48;26.60;50.40
34231;DHT22;21574;51.538;-0.084;2022-08-20T12:53:14;26.60;50.40
34231;DHT22;21574;51.538;-0.084;2022-08-20T12:55:39;26.60;50.50
34231;DHT22;21574;51.538;-0.084;2022-08-20T12:58:07;26.60;50.40
34231;DHT22;21574;51.538;-0.084;2022-08-20T13:00:34;26.60;50.40
34231;DHT22;21574;51.538;-0.084;2022-08-20T13:03:01;26.60;50.60
34231;DHT22;21574;51.538;-0.084;2022-08-20T13:05:27;26.60;50.70
34231;DHT22;21574;51.538;-0.084;2022-08-20T13:07:53;26.60;50.70
34231;DHT22;21574;51.538;-0.084;2022-08-20T13:10:23;26.60;50.70
34231;DHT22;21574;51.538;-0.084;2022-08-20T13:12:49;26.60;50.90
34231;DHT22;21574;51.538;-0.084;2022-08-20T13:15:15;26.50;51.00
34231;DHT22;21574;51.538;-0.084;2022-08-20T13:17:40;26.50;51.00
34231;DHT22;21574;51.538;-0.084;2022-08-20T13:20:07;26.50;51.00
34231;DHT22;21574;51.538;-0.084;2022-08-20T13:22:33;26.50;51.00
34231;DHT22;21574;51.538;-0.084;2022-08-20T13:24:59;26.50;51.10
34231;DHT22;21574;51.538;-0.084;2022-08-20T13:27:24;26.50;51.20
34231;DHT22;21574;51.538;-0.084;2022-08-20T13:29:53;26.50;51.20
34231;DHT22;21574;51.538;-0.084;2022-08-20T13:32:20;26.50;51.30
34231;DHT22;21574;51.538;-0.084;2022-08-20T13:34:47;26.40;51.30
34231;DHT22;21574;51.538;-0.084;2022-08-20T13:37:24;26.40;51.40
34231;DHT22;21574;51.538;-0.084;2022-08-20T13:39:49;26.40;51.40
34231;DHT22;21574;51.538;-0.084;2022-08-20T13:42:15;26.40;51.50
34231;DHT22;21574;51.538;-0.084;2022-08-20T13:44:40;26.40;51.50
34231;DHT22;21574;51.538;-0.084;2022-08-20T13:47:16;26.50;51.00
34231;DHT22;21574;51.538;-0.084;2022-08-20T13:49:42;26.70;51.90
34231;DHT22;21574;51.538;-0.084;2022-08-20T13:52:07;26.80;51.40
34231;DHT22;21574;51.538;-0.084;2022-08-20T13:54:33;26.90;51.20
34231;DHT22;21574;51.538;-0.084;2022-08-20T13:57:05;26.90;51.20
34231;DHT22;21574;51.538;-0.084;2022-08-20T13:59:33;27.00;51.40
34231;DHT22;21574;51.538;-0.084;2022-08-20T14:01:59;27.00;51.40
34231;DHT22;21574;51.538;-0.084;2022-08-20T14:04:24;27.00;51.40
34231;DHT22;21574;51.538;-0.084;2022-08-20T14:06:50;27.10;51.70
34231;DHT22;21574;51.538;-0.084;2022-08-20T14:09:15;27.20;51.60
34231;DHT22;21574;51.538;-0.084;2022-08-20T14:11:40;27.30;51.60
34231;DHT22;21574;51.538;-0.084;2022-08-20T14:14:06;27.30;51.30
34231;DHT22;21574;51.538;-0.084;2022-08-20T14:16:32;27.00;50.80
34231;DHT22;21574;51.538;-0.084;2022-08-20T14:18:58;26.90;50.60
34231;DHT22;21574;51.538;-0.084;2022-08-20T14:21:23;26.80;50.30
34231;DHT22;21574;51.538;-0.084;2022-08-20T14:23:49;26.80;50.40
34231;DHT22;21574;51.538;-0.084;2022-08-20T14:26:14;26.80;50.50
34231;DHT22;21574;51.538;-0.084;2022-08-20T14:28:39;26.70;50.60
34231;DHT22;21574;51.538;-0.084;2022-08-20T14:31:05;26.70;50.70
34231;DHT22;21574;51.538;-0.084;2022-08-20T14:33:31;26.70;50.80
34231;DHT22;21574;51.538;-0.084;2022-08-20T14:35:56;26.70;50.90
34231;DHT22;21574;51.538;-0.084;2022-08-20T14:38:22;26.60;51.00
34231;DHT22;21574;51.538;-0.084;2022-08-20T14:40:47;26.70;51.10
34231;DHT22;21574;51.538;-0.084;2022-08-20T14:43:14;26.60;51.20
34231;DHT22;21574;51.538;-0.084;2022-08-20T14:45:40;26.60;51.30
34231;DHT22;21574;51.538;-0.084;2022-08-20T14:48:05;26.60;51.40
34231;DHT22;21574;51.538;-0.084;2022-08-20T14:50:32;26.60;51.50
34231;DHT22;21574;51.538;-0.084;2022-08-20T14:52:59;26.60;51.60
34231;DHT22;21574;51.538;-0.084;2022-08-20T14:55:26;26.60;51.60
34231;DHT22;21574;51.538;-0.084;2022-08-20T14:57:52;26.60;51.50
34231;DHT22;21574;51.538;-0.084;2022-08-20T15:00:28;26.60;51.60
34231;DHT22;21574;51.538;-0.084;2022-08-20T15:02:54;26.60;51.60
34231;DHT22;21574;51.538;-0.084;2022-08-20T15:05:20;26.60;51.70
34231;DHT22;21574;51.538;-0.084;2022-08-20T15:07:46;26.60;51.80
34231;DHT22;21574;51.538;-0.084;2022-08-20T15:10:17;26.60;51.90
34231;DHT22;21574;51.538;-0.084;2022-08-20T15:12:44;26.60;52.00
34231;DHT22;21574;51.538;-0.084;2022-08-20T15:15:10;26.60;51.90